Time;durP1;ratioP1;P1;durP2;ratioP2;P2;SDS_P1;SDS_P2;PMS_P1;PMS_P2;Temp;Humidity;BMP_temperature;BMP_pressure;BME280_temperature;BME280_humidity;BME280_pressure;Samples;Min_cycle;Max_cycle;Signal;HPM_P1;HPM_P2
2022/06/17 00:00:58;;;;;;;7.07;4.88;;;13.40;99.90;;;;;;5074059;28;20028;-65
2022/06/17 00:03:26;;;;;;;5.78;5.18;;;13.40;99.90;;;;;;5073797;28;20490;-65
2022/06/17 00:05:54;;;;;;;6.57;4.97;;;13.40;99.90;;;;;;5072814;28;20032;-64
2022/06/17 00:08:25;;;;;;;9.10;5.82;;;13.40;99.90;;;;;;5073215;28;20021;-64
2022/06/17 00:10:51;;;;;;;12.27;5.85;;;13.40;99.90;;;;;;5073930;28;20032;-64
2022/06/17 00:13:19;;;;;;;7.65;6.25;;;13.30;99.90;;;;;;5073541;28;20035;-64
2022/06/17 00:15:46;;;;;;;7.85;5.80;;;13.20;99.90;;;;;;5073652;28;20497;-64
2022/06/17 00:18:14;;;;;;;7.63;5.75;;;13.20;99.90;;;;;;5073742;28;20111;-64
2022/06/17 00:20:40;;;;;;;8.43;5.75;;;13.20;99.90;;;;;;5073756;28;20036;-64
2022/06/17 00:23:11;;;;;;;9.52;6.25;;;13.10;99.90;;;;;;5072588;28;20496;-64
2022/06/17 00:25:38;;;;;;;12.20;6.20;;;13.10;99.90;;;;;;5073498;28;20075;-65
2022/06/17 00:28:09;;;;;;;7.38;5.82;;;13.00;99.90;;;;;;5073493;28;20066;-64
2022/06/17 00:30:35;;;;;;;9.68;6.93;;;13.00;99.90;;;;;;5073601;28;20513;-64
2022/06/17 00:33:02;;;;;;;8.60;6.95;;;12.80;99.90;;;;;;5073477;28;20025;-64
2022/06/17 00:35:35;;;;;;;11.05;6.40;;;12.80;99.90;;;;;;5073311;28;20025;-65
2022/06/17 00:38:02;;;;;;;9.88;6.38;;;12.80;99.90;;;;;;5073201;28;20021;-64
2022/06/17 00:40:31;;;;;;;9.15;6.93;;;12.80;99.90;;;;;;5073228;28;20100;-65
2022/06/17 00:43:02;;;;;;;11.18;7.15;;;12.70;99.90;;;;;;5073206;28;20066;-65
2022/06/17 00:45:41;;;;;;;7.75;6.18;;;12.70;99.90;;;;;;5073470;28;20070;-64
2022/06/17 00:48:15;;;;;;;9.30;7.03;;;12.70;99.90;;;;;;5073088;28;20080;-65
2022/06/17 00:50:58;;;;;;;9.70;7.45;;;12.60;99.90;;;;;;5073385;28;20475;-65
2022/06/17 00:53:28;;;;;;;9.90;7.13;;;12.60;99.90;;;;;;5073076;28;20081;-65
2022/06/17 00:56:00;;;;;;;10.77;7.75;;;12.60;99.90;;;;;;5073039;28;20044;-64
2022/06/17 00:58:30;;;;;;;7.75;6.88;;;12.60;99.90;;;;;;5072885;28;20583;-64
2022/06/17 01:00:59;;;;;;;8.63;6.88;;;12.50;99.90;;;;;;5073349;28;20493;-64
2022/06/17 01:03:30;;;;;;;10.52;7.63;;;12.50;99.90;;;;;;5071757;28;20024;-65
2022/06/17 01:06:03;;;;;;;13.70;8.88;;;12.50;99.90;;;;;;5073260;28;20380;-65
2022/06/17 01:11:23;;;;;;;9.63;7.97;;;12.60;99.90;;;;;;5072820;28;19998;-65
2022/06/17 01:13:51;;;;;;;10.77;7.90;;;12.50;99.90;;;;;;5073228;28;20478;-65
2022/06/17 01:16:19;;;;;;;11.88;8.10;;;12.40;99.90;;;;;;5072832;28;20033;-65
2022/06/17 01:18:46;;;;;;;12.38;7.45;;;12.40;99.90;;;;;;5073250;28;20036;-65
2022/06/17 01:21:25;;;;;;;12.88;8.43;;;12.10;99.90;;;;;;5077171;28;20486;-65
2022/06/17 01:23:50;;;;;;;10.23;7.32;;;12.30;99.90;;;;;;5077121;28;20029;-65
2022/06/17 01:26:17;;;;;;;13.23;8.23;;;12.20;99.90;;;;;;5076779;28;20482;-65
2022/06/17 01:28:43;;;;;;;9.52;7.22;;;12.20;99.90;;;;;;5077019;28;20433;-65
2022/06/17 01:31:08;;;;;;;9.68;7.70;;;12.00;99.90;;;;;;5075802;28;20024;-65
2022/06/17 01:33:37;;;;;;;11.95;7.88;;;12.20;99.90;;;;;;5076754;28;20443;-65
2022/06/17 01:36:23;;;;;;;8.63;7.07;;;12.30;99.90;;;;;;5076899;28;20064;-65
2022/06/17 01:38:52;;;;;;;10.10;7.40;;;12.20;99.90;;;;;;5076765;28;20063;-65
2022/06/17 01:41:22;;;;;;;9.93;7.95;;;;;;;;;;5076825;28;20028;-65
2022/06/17 01:43:55;;;;;;;12.65;8.30;;;12.20;99.90;;;;;;5075236;28;20498;-65
2022/06/17 01:46:33;;;;;;;10.85;7.85;;;;;;;;;;5076455;28;20012;-65
2022/06/17 01:49:08;;;;;;;9.75;7.85;;;;;;;;;;5076351;28;20028;-65
2022/06/17 01:51:37;;;;;;;9.55;8.40;;;;;;;;;;5076596;28;20036;-65
2022/06/17 01:54:08;;;;;;;10.52;7.95;;;;;;;;;;5075153;28;20459;-64
2022/06/17 01:56:35;;;;;;;9.77;7.15;;;;;;;;;;5076656;28;20123;-64
2022/06/17 01:59:03;;;;;;;10.95;7.53;;;;;;;;;;5076084;28;20045;-64
2022/06/17 02:01:30;;;;;;;13.60;7.95;;;;;;;;;;5076450;28;20028;-64
2022/06/17 02:04:00;;;;;;;9.68;7.43;;;;;;;;;;5076182;28;20021;-65
2022/06/17 02:06:33;;;;;;;10.02;7.72;;;;;;;;;;5076293;28;20021;-64
2022/06/17 02:08:59;;;;;;;9.33;8.33;;;;;;;;;;5076291;28;20032;-64
2022/06/17 02:11:25;;;;;;;10.00;7.88;;;;;;;;;;5076526;28;20024;-64
2022/06/17 02:13:51;;;;;;;10.65;9.07;;;;;;;;;;5076465;28;20475;-64
2022/06/17 02:16:18;;;;;;;9.68;7.72;;;;;;;;;;5076444;28;20475;-64
2022/06/17 02:18:44;;;;;;;10.07;8.00;;;;;;;;;;5076281;28;20028;-64
2022/06/17 02:21:13;;;;;;;9.73;8.43;;;;;;;;;;5075944;28;20025;-64
2022/06/17 02:23:39;;;;;;;9.73;7.70;;;;;;;;;;5075881;28;20017;-64
2022/06/17 02:26:06;;;;;;;9.43;8.13;;;;;;;;;;5075861;28;20146;-64
2022/06/17 02:28:34;;;;;;;12.10;8.60;;;;;;;;;;5075710;28;20029;-64
2022/06/17 02:31:00;;;;;;;12.35;8.43;;;;;;;;;;5075128;28;20036;-64
2022/06/17 02:33:27;;;;;;;12.00;8.88;;;;;;;;;;5074425;28;20031;-64
2022/06/17 02:36:00;;;;;;;9.88;8.48;;;;;;;;;;5075499;28;20475;-64
2022/06/17 02:38:29;;;;;;;11.68;9.35;;;;;;;;;;5075696;28;20037;-65
2022/06/17 02:40:58;;;;;;;10.07;8.95;;;;;;;;;;5075438;28;20479;-64
2022/06/17 02:43:26;;;;;;;12.48;10.00;;;;;;;;;;5075380;28;20126;-64
2022/06/17 02:45:58;;;;;;;10.20;8.60;;;;;;;;;;5075565;28;20386;-64
2022/06/17 02:48:27;;;;;;;12.98;8.50;;;;;;;;;;5075309;28;20089;-64
2022/06/17 02:50:54;;;;;;;11.25;8.23;;;;;;;;;;5075483;28;20112;-64
2022/06/17 02:53:24;;;;;;;10.43;8.60;;;;;;;;;;5073957;28;20043;-64
2022/06/17 02:55:51;;;;;;;14.18;9.23;;;;;;;;;;5075139;28;20029;-64
2022/06/17 02:58:23;;;;;;;12.40;8.85;;;;;;;;;;5074858;28;20048;-64
2022/06/17 03:00:51;;;;;;;12.30;9.32;;;11.60;99.90;;;;;;5075328;28;20029;-64
2022/06/17 03:03:19;;;;;;;14.40;9.90;;;11.70;99.90;;;;;;5075280;28;20480;-65
2022/06/17 03:05:46;;;;;;;14.80;9.80;;;11.70;99.90;;;;;;5075006;28;20025;-64
2022/06/17 03:08:23;;;;;;;14.40;9.55;;;11.70;99.90;;;;;;5075170;28;20485;-64
2022/06/17 03:10:52;;;;;;;13.90;9.80;;;11.70;99.90;;;;;;5073995;28;20107;-65
2022/06/17 03:13:25;;;;;;;12.45;9.73;;;11.60;99.90;;;;;;5075059;28;20037;-65
2022/06/17 03:15:55;;;;;;;11.60;9.52;;;11.60;99.90;;;;;;5075022;28;20506;-64
2022/06/17 03:18:21;;;;;;;12.23;8.85;;;11.60;99.90;;;;;;5073376;28;20078;-64
2022/06/17 03:20:48;;;;;;;15.68;10.55;;;11.60;99.90;;;;;;5074685;28;20012;-64
2022/06/17 03:23:21;;;;;;;11.82;9.43;;;11.60;99.90;;;;;;5074694;28;20107;-64
2022/06/17 03:25:54;;;;;;;13.70;9.35;;;11.60;99.90;;;;;;5074810;28;20514;-65
2022/06/17 03:28:25;;;;;;;;;;;11.60;99.90;;;;;;5075195;28;20032;-64
2022/06/17 03:31:00;;;;;;;12.25;9.52;;;11.70;99.90;;;;;;5074721;28;20255;-64
2022/06/17 03:33:32;;;;;;;12.05;9.32;;;11.70;99.90;;;;;;5074402;28;20029;-65
2022/06/17 03:36:01;;;;;;;12.05;9.32;;;11.70;99.90;;;;;;5074621;28;20036;-64
2022/06/17 03:38:33;;;;;;;14.32;10.75;;;11.70;99.90;;;;;;5074128;28;20052;-64
2022/06/17 03:41:10;;;;;;;16.30;10.40;;;11.70;99.90;;;;;;5072777;28;20029;-64
2022/06/17 03:43:44;;;;;;;13.65;9.52;;;11.80;99.90;;;;;;5073857;28;20390;-65
2022/06/17 03:46:11;;;;;;;14.25;10.23;;;11.80;99.90;;;;;;5074109;28;20047;-65
2022/06/17 03:48:48;;;;;;;16.13;10.93;;;11.80;99.90;;;;;;5074178;28;20032;-64
2022/06/17 03:51:16;;;;;;;14.63;11.27;;;11.80;99.90;;;;;;5074062;28;20029;-64
2022/06/17 03:53:44;;;;;;;12.15;9.45;;;11.90;99.90;;;;;;5074068;28;20049;-64
2022/06/17 03:56:22;;;;;;;13.75;11.02;;;11.90;99.90;;;;;;5073921;28;20048;-64
2022/06/17 03:58:49;;;;;;;12.35;10.00;;;12.00;99.90;;;;;;5073856;28;20052;-64
2022/06/17 04:01:38;;;;;;;18.08;11.40;;;12.00;99.90;;;;;;5074125;28;20517;-64
2022/06/17 04:04:13;;;;;;;16.13;11.30;;;12.10;99.90;;;;;;5073806;28;20017;-64
2022/06/17 04:06:42;;;;;;;13.80;9.77;;;12.20;99.90;;;;;;5073783;28;20051;-65
2022/06/17 04:09:20;;;;;;;15.43;11.02;;;;;;;;;;5073675;28;20383;-64
2022/06/17 04:11:49;;;;;;;15.63;11.10;;;12.40;99.90;;;;;;5073711;28;20107;-64
2022/06/17 04:14:21;;;;;;;12.80;9.98;;;12.50;99.90;;;;;;5073862;28;20024;-64
2022/06/17 04:17:02;;;;;;;14.18;9.93;;;12.60;99.90;;;;;;5073756;28;20540;-65
2022/06/17 04:19:28;;;;;;;11.95;9.38;;;12.80;99.90;;;;;;5073741;28;20310;-65
2022/06/17 04:22:03;;;;;;;11.23;9.90;;;12.90;99.90;;;;;;5073537;28;20144;-65
2022/06/17 04:24:30;;;;;;;11.80;9.02;;;13.10;99.90;;;;;;5073728;28;20024;-65
2022/06/17 04:27:00;;;;;;;11.32;8.95;;;13.40;99.90;;;;;;5073709;28;20159;-65
2022/06/17 04:29:34;;;;;;;11.18;9.93;;;13.60;99.90;;;;;;5073410;28;20024;-65
2022/06/17 04:32:09;;;;;;;12.38;8.88;;;13.90;99.90;;;;;;5073618;28;20028;-65
2022/06/17 04:34:35;;;;;;;7.82;6.90;;;14.70;99.90;;;;;;5072121;28;20075;-65
2022/06/17 04:37:04;;;;;;;10.75;6.93;;;15.70;99.90;;;;;;5073551;28;20021;-64
2022/06/17 04:39:43;;;;;;;10.45;6.82;;;16.30;99.90;;;;;;5073469;28;20038;-65
2022/06/17 04:42:16;;;;;;;9.00;6.20;;;17.50;99.90;;;;;;5073318;28;20090;-65
2022/06/17 04:44:43;;;;;;;9.98;5.85;;;19.20;99.90;;;;;;5073479;28;20020;-65
2022/06/17 04:47:13;;;;;;;7.20;5.35;;;20.90;99.90;;;;;;5073469;28;20386;-65
2022/06/17 04:49:44;;;;;;;5.60;4.68;;;22.20;99.90;;;;;;5073399;28;20479;-65
2022/06/17 04:52:27;;;;;;;6.80;4.97;;;22.80;99.90;;;;;;5073208;28;20059;-65
2022/06/17 04:54:57;;;;;;;6.25;5.57;;;22.50;99.80;;;;;;5073374;28;20029;-65
2022/06/17 04:57:23;;;;;;;6.57;4.90;;;22.40;99.90;;;;;;5073029;28;20059;-65
2022/06/17 04:59:48;;;;;;;8.40;5.10;;;21.60;99.90;;;;;;5073139;28;20020;-65
2022/06/17 05:02:21;;;;;;;5.53;4.97;;;21.70;99.90;;;;;;5071897;28;20478;-66
2022/06/17 05:04:49;;;;;;;5.17;4.60;;;21.50;99.90;;;;;;5073344;28;20554;-65
2022/06/17 05:07:16;;;;;;;5.97;5.13;;;21.20;99.90;;;;;;5073282;28;20255;-66
2022/06/17 05:09:54;;;;;;;6.85;5.30;;;20.40;99.90;;;;;;5073200;28;20112;-65
2022/06/17 05:12:34;;;;;;;6.78;5.35;;;19.80;99.90;;;;;;5072990;28;20071;-65
2022/06/17 05:15:06;;;;;;;6.68;5.03;;;20.00;99.90;;;;;;5073186;28;20029;-65
2022/06/17 05:17:33;;;;;;;7.63;5.43;;;20.20;99.90;;;;;;5073055;28;20155;-65
2022/06/17 05:19:59;;;;;;;6.53;5.70;;;20.10;99.90;;;;;;5073159;28;20048;-65
2022/06/17 05:22:36;;;;;;;8.35;4.90;;;21.20;99.90;;;;;;5073149;28;20024;-65
2022/06/17 05:25:05;;;;;;;5.80;5.03;;;22.90;99.90;;;;;;5072778;28;20023;-65
2022/06/17 05:27:31;;;;;;;7.60;4.97;;;23.70;98.10;;;;;;5072807;28;20506;-65
2022/06/17 05:29:57;;;;;;;5.07;4.57;;;23.70;97.20;;;;;;5073043;28;20012;-65
2022/06/17 05:32:23;;;;;;;10.63;5.10;;;23.90;96.80;;;;;;5072974;28;20017;-65
2022/06/17 05:34:49;;;;;;;4.78;4.38;;;25.70;94.00;;;;;;5072993;28;20044;-65
2022/06/17 05:37:15;;;;;;;7.53;4.65;;;26.10;91.40;;;;;;5072960;28;20370;-65
2022/06/17 05:39:41;;;;;;;7.22;4.38;;;26.60;88.40;;;;;;5072654;28;20034;-66
2022/06/17 05:42:09;;;;;;;8.98;4.50;;;26.70;85.50;;;;;;5072935;28;20029;-63
2022/06/17 05:44:34;;;;;;;6.20;4.80;;;25.70;87.80;;;;;;5072885;28;20047;-64
2022/06/17 05:47:00;;;;;;;7.68;4.80;;;26.20;85.50;;;;;;5071454;28;20024;-63
2022/06/17 05:49:25;;;;;;;6.07;4.32;;;25.70;84.30;;;;;;5072615;28;20035;-66
2022/06/17 05:51:51;;;;;;;6.03;4.25;;;24.90;88.10;;;;;;5071247;28;20028;-65
2022/06/17 05:54:17;;;;;;;8.43;5.10;;;23.80;91.40;;;;;;5072794;28;20028;-65
2022/06/17 05:56:43;;;;;;;8.63;5.43;;;23.30;94.10;;;;;;5072934;28;20089;-66
2022/06/17 05:59:10;;;;;;;8.40;5.20;;;23.70;93.00;;;;;;5068016;28;20040;-65
2022/06/17 06:01:36;;;;;;;10.80;4.80;;;23.40;93.80;;;;;;5072141;28;20027;-65
2022/06/17 06:04:01;;;;;;;10.23;5.43;;;23.10;94.70;;;;;;5071029;28;20379;-65
2022/06/17 06:06:27;;;;;;;8.45;5.70;;;22.10;96.50;;;;;;5073788;28;20088;-65
2022/06/17 06:08:52;;;;;;;10.05;5.40;;;22.10;98.80;;;;;;5074910;28;20020;-65
2022/06/17 06:11:18;;;;;;;7.35;5.00;;;22.80;97.00;;;;;;5076069;28;20383;-65
2022/06/17 06:13:44;;;;;;;6.03;5.05;;;24.00;95.20;;;;;;5076122;28;20029;-65
2022/06/17 06:16:10;;;;;;;11.13;5.45;;;25.30;91.70;;;;;;5074183;28;20086;-65
2022/06/17 06:18:39;;;;;;;6.15;4.90;;;24.40;91.40;;;;;;5068852;28;20021;-65
2022/06/17 06:21:05;;;;;;;10.55;5.07;;;23.70;94.00;;;;;;5070460;28;20017;-65
2022/06/17 06:23:36;;;;;;;13.68;5.20;;;23.80;93.90;;;;;;5074500;28;20108;-65
2022/06/17 06:26:03;;;;;;;7.82;4.80;;;24.00;93.30;;;;;;5074352;28;20474;-65
2022/06/17 06:28:29;;;;;;;9.60;4.55;;;25.10;91.80;;;;;;5075818;28;20483;-65
2022/06/17 06:31:00;;;;;;;7.32;4.45;;;26.80;87.40;;;;;;5075891;28;20493;-65
2022/06/17 06:33:26;;;;;;;11.00;4.22;;;27.10;86.10;;;;;;5075763;28;20028;-65
2022/06/17 06:35:51;;;;;;;10.00;4.55;;;25.70;86.00;;;;;;5075727;28;20038;-65
2022/06/17 06:38:17;;;;;;;5.97;3.97;;;25.00;90.80;;;;;;5075637;28;20020;-65
2022/06/17 06:40:43;;;;;;;5.45;4.63;;;24.30;92.30;;;;;;5075653;28;20021;-65
2022/06/17 06:43:16;;;;;;;10.05;4.80;;;24.10;92.50;;;;;;5075659;28;20466;-65
2022/06/17 06:45:44;;;;;;;11.00;5.22;;;23.50;94.10;;;;;;5075342;28;20107;-65
2022/06/17 06:48:12;;;;;;;8.32;4.63;;;23.20;95.10;;;;;;5074148;28;20561;-65
2022/06/17 06:50:38;;;;;;;8.10;4.40;;;23.50;95.20;;;;;;5056720;28;20491;-65
2022/06/17 06:53:05;;;;;;;6.55;4.38;;;23.90;95.00;;;;;;5075446;28;20029;-65
2022/06/17 06:55:31;;;;;;;9.35;4.30;;;24.90;92.40;;;;;;5062414;28;20387;-65
2022/06/17 06:58:05;;;;;;;9.30;4.55;;;26.90;89.00;;;;;;5054812;28;20049;-65
2022/06/17 07:00:38;;;;;;;7.60;4.10;;;27.10;85.40;;;;;;5055057;28;20039;-65
2022/06/17 07:03:04;;;;;;;;;;;27.30;82.90;;;;;;5055654;28;20025;-65
2022/06/17 07:05:31;;;;;;;7.93;3.90;;;28.40;80.30;;;;;;5054881;28;20338;-66
2022/06/17 07:07:57;;;;;;;6.28;3.80;;;29.60;78.00;;;;;;5055180;28;20040;-66
2022/06/17 07:10:27;;;;;;;7.57;3.55;;;30.10;76.20;;;;;;5055224;28;20024;-66
2022/06/17 07:12:53;;;;;;;5.75;3.60;;;31.00;71.80;;;;;;5055062;28;20037;-65
2022/06/17 07:15:19;;;;;;;8.20;3.67;;;29.90;71.20;;;;;;5055036;28;20032;-65
2022/06/17 07:18:07;;;;;;;6.78;3.50;;;29.60;70.70;;;;;;5054925;28;20025;-65
2022/06/17 07:20:42;;;;;;;9.27;3.58;;;28.50;73.50;;;;;;5054602;28;20013;-65
2022/06/17 07:23:13;;;;;;;7.30;3.88;;;27.80;75.40;;;;;;5054879;28;20028;-65
2022/06/17 07:25:40;;;;;;;10.70;3.83;;;27.90;75.50;;;;;;5054868;28;20502;-65
2022/06/17 07:28:06;;;;;;;5.28;3.83;;;28.00;75.50;;;;;;5053344;28;20035;-65
2022/06/17 07:30:33;;;;;;;6.53;4.15;;;27.40;76.40;;;;;;5054465;28;20056;-66
2022/06/17 07:32:59;;;;;;;7.18;4.18;;;27.40;77.10;;;;;;5054691;28;20033;-65
2022/06/17 07:35:26;;;;;;;6.53;3.60;;;27.00;78.30;;;;;;5063781;28;20035;-65
2022/06/17 07:40:37;;;;;;;9.32;3.90;;;25.50;79.30;;;;;;5074025;28;20043;-65
2022/06/17 07:43:03;;;;;;;8.02;3.83;;;24.80;85.00;;;;;;5074386;28;20405;-65
2022/06/17 07:45:31;;;;;;;7.32;3.80;;;24.70;88.20;;;;;;5074199;28;20100;-65
2022/06/17 07:47:58;;;;;;;10.75;3.75;;;24.70;87.30;;;;;;5074104;28;20044;-65
2022/06/17 07:50:29;;;;;;;9.30;3.40;;;24.60;89.10;;;;;;5061702;28;20025;-65
2022/06/17 07:52:55;;;;;;;5.57;4.00;;;24.50;89.80;;;;;;5052737;28;20021;-65
2022/06/17 07:55:22;;;;;;;8.38;3.70;;;24.40;89.50;;;;;;5054076;28;20138;-65
2022/06/17 07:57:48;;;;;;;5.50;3.53;;;24.40;90.60;;;;;;5053711;28;20413;-64
2022/06/17 08:00:27;;;;;;;9.82;3.80;;;24.50;91.00;;;;;;5036176;28;20025;-65
2022/06/17 08:02:53;;;;;;;8.38;4.05;;;24.30;91.30;;;;;;5054103;28;20025;-64
2022/06/17 08:05:22;;;;;;;5.82;3.25;;;24.40;91.90;;;;;;5054090;28;20506;-65
2022/06/17 08:07:49;;;;;;;9.35;3.65;;;24.70;90.90;;;;;;5061916;28;20384;-66
2022/06/17 08:10:16;;;;;;;7.10;3.72;;;24.90;90.30;;;;;;5053614;28;20029;-65
2022/06/17 08:12:42;;;;;;;10.70;4.05;;;24.70;90.50;;;;;;5053891;28;20029;-65
2022/06/17 08:15:08;;;;;;;6.22;3.97;;;24.70;90.50;;;;;;5073260;28;20043;-65
2022/06/17 08:17:33;;;;;;;11.98;3.45;;;24.70;90.30;;;;;;5073649;28;20469;-65
2022/06/17 08:19:59;;;;;;;5.65;3.42;;;25.00;90.80;;;;;;5073532;28;20031;-65
2022/06/17 08:22:25;;;;;;;6.28;3.28;;;25.30;89.90;;;;;;5073704;28;20021;-65
2022/06/17 08:24:53;;;;;;;6.00;3.38;;;25.70;88.40;;;;;;5072523;28;20489;-65
2022/06/17 08:27:19;;;;;;;4.10;2.80;;;27.30;84.80;;;;;;5073443;28;20112;-65
2022/06/17 08:29:45;;;;;;;6.20;3.30;;;29.00;80.50;;;;;;5072243;28;20068;-66
2022/06/17 08:34:56;;;;;;;6.53;3.30;;;31.00;71.30;;;;;;5073184;28;20070;-65
2022/06/17 08:37:22;;;;;;;5.20;3.03;;;29.60;71.70;;;;;;5073218;28;20140;-66
2022/06/17 08:39:50;;;;;;;5.25;2.70;;;30.50;72.70;;;;;;5073522;28;20032;-65
2022/06/17 08:42:47;;;;;;;5.15;2.67;;;29.90;68.50;;;;;;5073449;28;20021;-65
2022/06/17 08:45:26;;;;;;;8.05;3.20;;;29.20;65.00;;;;;;5073004;28;20077;-66
2022/06/17 08:48:10;;;;;;;3.08;2.50;;;28.40;65.70;;;;;;5073149;28;20028;-66
2022/06/17 08:51:15;;;;;;;4.18;2.70;;;29.60;65.80;;;;;;5072188;28;20474;-65
2022/06/17 09:02:18;;;;;;;4.05;2.80;;;28.60;66.00;;;;;;5110981;27;20643;-66
2022/06/17 09:05:00;;;;;;;5.07;2.65;;;28.30;66.90;;;;;;5111149;28;20020;-66
2022/06/17 09:07:59;;;;;;;5.70;2.60;;;29.40;65.20;;;;;;5111181;28;20031;-64
2022/06/17 09:10:39;;;;;;;3.65;2.42;;;30.40;62.30;;;;;;5110799;28;20028;-64
2022/06/17 09:13:33;;;;;;;6.40;3.25;;;29.50;60.70;;;;;;5110809;28;20507;-64
2022/06/17 09:16:24;;;;;;;5.15;3.30;;;29.60;62.60;;;;;;5109676;28;20067;-64
2022/06/17 09:18:56;;;;;;;3.83;2.50;;;31.10;59.50;;;;;;5103471;28;20032;-64
2022/06/17 09:21:37;;;;;;;6.47;2.40;;;31.60;57.30;;;;;;5101663;28;20028;-64
2022/06/17 09:24:09;;;;;;;5.85;2.50;;;30.90;55.90;;;;;;5108674;28;20531;-64
2022/06/17 09:26:40;;;;;;;;;;;30.40;57.90;;;;;;5109176;28;20443;-65
2022/06/17 09:29:20;;;;;;;4.53;2.70;;;29.50;59.10;;;;;;5108648;28;19908;-64
2022/06/17 09:31:51;;;;;;;7.25;2.58;;;29.40;59.60;;;;;;5108551;28;20500;-64
2022/06/17 09:34:38;;;;;;;4.13;2.67;;;28.50;60.30;;;;;;5108594;28;20393;-64
2022/06/17 09:37:12;;;;;;;4.95;2.80;;;28.40;61.50;;;;;;5109248;28;20050;-64
2022/06/17 09:39:48;;;;;;;5.05;2.80;;;29.30;60.60;;;;;;5110506;28;20477;-64
2022/06/17 09:42:24;;;;;;;5.00;2.75;;;30.00;61.20;;;;;;5110465;28;20454;-64
2022/06/17 09:44:55;;;;;;;4.43;2.40;;;30.40;58.10;;;;;;5109228;28;20042;-64
2022/06/17 09:47:30;;;;;;;5.10;2.42;;;30.60;56.40;;;;;;5110076;28;20016;-64
2022/06/17 09:50:05;;;;;;;3.83;2.30;;;29.70;54.70;;;;;;5109862;28;20541;-63
2022/06/17 09:52:37;;;;;;;3.85;2.05;;;28.90;55.70;;;;;;5109201;28;20375;-64
2022/06/17 09:55:11;;;;;;;5.53;2.30;;;28.50;57.40;;;;;;5110077;28;20454;-64
2022/06/17 09:57:45;;;;;;;2.63;2.00;;;29.10;57.10;;;;;;5109939;28;20430;-64
2022/06/17 10:00:15;;;;;;;5.32;2.20;;;28.70;56.20;;;;;;5109551;28;20514;-63
2022/06/17 10:02:52;;;;;;;4.88;2.10;;;29.60;55.10;;;;;;5112887;28;20019;-65
2022/06/17 10:05:57;;;;;;;2.35;1.80;;;30.30;55.20;;;;;;5110735;28;20028;-64
2022/06/17 10:08:54;;;;;;;4.32;2.05;;;30.50;54.20;;;;;;5108638;28;20039;-64
2022/06/17 10:11:34;;;;;;;3.40;1.90;;;30.20;54.20;;;;;;5107389;28;20023;-64
2022/06/17 10:23:18;;;;;;;3.30;1.70;;;30.90;49.80;;;;;;5110216;27;20363;-65
2022/06/17 10:26:03;;;;;;;2.97;1.77;;;31.20;51.50;;;;;;5091054;28;20117;-65
2022/06/17 10:29:08;;;;;;;3.22;1.90;;;30.40;52.90;;;;;;5100902;28;20424;-65
2022/06/17 10:31:42;;;;;;;2.63;1.58;;;30.50;51.70;;;;;;5098360;28;20078;-66
2022/06/17 10:34:18;;;;;;;5.10;1.83;;;30.50;51.00;;;;;;5090062;28;20386;-65
2022/06/17 10:36:45;;;;;;;4.28;1.75;;;30.10;51.30;;;;;;5092257;28;20024;-65
2022/06/17 10:39:16;;;;;;;2.05;1.60;;;30.20;52.80;;;;;;5099685;28;20024;-65
2022/06/17 10:41:42;;;;;;;2.92;1.58;;;31.30;50.10;;;;;;5110856;28;20024;-66
2022/06/17 10:44:11;;;;;;;2.90;1.80;;;31.10;49.40;;;;;;5110789;28;20381;-65
2022/06/17 10:46:41;;;;;;;1.70;1.40;;;30.20;50.00;;;;;;5104239;28;20035;-65
2022/06/17 10:49:20;;;;;;;3.83;1.60;;;28.90;51.60;;;;;;5089968;28;20561;-65
2022/06/17 10:51:50;;;;;;;4.25;2.13;;;29.10;53.40;;;;;;5096736;28;20032;-66
2022/06/17 10:54:28;;;;;;;3.25;2.15;;;29.30;53.90;;;;;;5104937;28;20470;-65
2022/06/17 10:57:05;;;;;;;3.88;1.80;;;29.50;53.70;;;;;;5092123;28;20028;-65
2022/06/17 10:59:35;;;;;;;2.33;2.10;;;29.60;54.10;;;;;;5110533;28;20024;-65
2022/06/17 11:02:01;;;;;;;4.68;1.80;;;29.60;53.80;;;;;;5110470;28;20050;-65
2022/06/17 11:04:30;;;;;;;3.15;1.92;;;29.50;53.70;;;;;;5092321;28;20501;-65
2022/06/17 11:07:06;;;;;;;3.13;1.60;;;29.30;54.20;;;;;;5069823;28;20021;-65
2022/06/17 11:09:40;;;;;;;1.95;1.42;;;29.60;53.50;;;;;;5051567;28;20032;-65
2022/06/17 11:12:16;;;;;;;3.05;1.90;;;29.80;53.70;;;;;;5069713;28;20406;-65
2022/06/17 11:14:54;;;;;;;2.05;1.70;;;29.10;54.10;;;;;;5069777;28;20028;-66
2022/06/17 11:17:41;;;;;;;2.65;1.50;;;29.20;54.00;;;;;;5075894;28;20518;-65
2022/06/17 11:20:26;;;;;;;3.67;1.75;;;29.50;54.10;;;;;;5089407;28;20430;-65
2022/06/17 11:22:56;;;;;;;4.47;1.80;;;29.50;55.00;;;;;;5087738;28;20044;-66
2022/06/17 11:25:34;;;;;;;7.00;2.00;;;29.70;54.50;;;;;;5109476;28;20027;-65
2022/06/17 11:28:23;;;;;;;3.97;2.10;;;30.00;54.80;;;;;;5110044;28;20020;-66
2022/06/17 11:30:53;;;;;;;3.00;1.70;;;30.40;52.20;;;;;;5109717;28;20039;-66
2022/06/17 11:33:47;;;;;;;4.18;1.67;;;29.60;53.00;;;;;;5100229;28;20028;-65
2022/06/17 11:36:17;;;;;;;3.88;1.80;;;29.00;53.10;;;;;;5095936;28;20065;-66
2022/06/17 11:38:44;;;;;;;4.82;1.95;;;29.10;53.60;;;;;;5096431;28;20035;-65
2022/06/17 11:41:10;;;;;;;2.03;1.60;;;28.90;54.10;;;;;;5096009;28;20028;-65
2022/06/17 11:43:41;;;;;;;4.50;2.00;;;28.80;54.40;;;;;;5096180;28;20494;-66
2022/06/17 11:46:11;;;;;;;3.90;2.17;;;29.30;54.90;;;;;;5094836;28;20028;-66
2022/06/17 11:48:40;;;;;;;2.20;1.80;;;29.40;53.20;;;;;;5096053;28;20490;-66
2022/06/17 11:51:16;;;;;;;3.53;2.22;;;29.00;53.80;;;;;;5095984;28;20020;-66
2022/06/17 11:53:56;;;;;;;4.68;2.20;;;29.20;54.80;;;;;;5084647;28;20379;-66
2022/06/17 11:56:39;;;;;;;5.82;1.92;;;29.00;53.20;;;;;;5054348;28;20025;-66
2022/06/17 11:59:17;;;;;;;3.90;1.80;;;28.70;54.80;;;;;;5055402;28;20313;-67
2022/06/17 12:01:49;;;;;;;4.20;1.80;;;28.20;54.80;;;;;;5075120;28;20033;-66
2022/06/17 12:04:56;;;;;;;2.55;1.70;;;28.50;54.50;;;;;;5070603;28;20052;-65
2022/06/17 12:10:31;;;;;;;3.80;1.90;;;28.20;54.90;;;;;;5111034;27;20434;-66
2022/06/17 12:13:04;;;;;;;6.15;1.77;;;28.10;55.10;;;;;;5109955;28;20036;-65
2022/06/17 12:15:40;;;;;;;3.65;1.80;;;28.20;54.20;;;;;;5111026;28;20039;-66
2022/06/17 12:18:09;;;;;;;4.15;2.40;;;28.50;54.30;;;;;;5111101;28;20538;-66
2022/06/17 12:20:46;;;;;;;7.03;1.60;;;28.80;54.40;;;;;;5109899;28;20016;-66
2022/06/17 12:23:24;;;;;;;2.95;2.00;;;29.00;53.40;;;;;;5110913;28;20539;-66
2022/06/17 12:25:57;;;;;;;2.03;1.83;;;28.60;52.90;;;;;;5109906;28;20504;-66
2022/06/17 12:31:46;;;;;;;4.45;2.00;;;29.20;54.40;;;;;;5109446;27;20384;-66
2022/06/17 12:37:18;;;;;;;4.82;1.70;;;29.30;53.60;;;;;;5152427;27;20377;-65
2022/06/17 12:40:00;;;;;;;1.88;1.75;;;29.00;54.50;;;;;;5152372;27;20073;-65
2022/06/17 12:42:34;;;;;;;2.67;1.73;;;29.10;55.30;;;;;;5151417;27;20392;-65
2022/06/17 12:45:19;;;;;;;1.83;1.60;;;29.10;54.20;;;;;;5152168;27;20076;-65
2022/06/17 12:48:13;;;;;;;4.10;2.10;;;29.40;54.70;;;;;;5152320;27;20495;-65
2022/06/17 12:56:37;;;;;;;2.92;1.80;;;29.10;55.40;;;;;;5090689;27;20374;-65
2022/06/17 12:59:43;;;;;;;2.10;1.73;;;29.50;53.20;;;;;;5090960;28;20036;-65
2022/06/17 13:02:18;;;;;;;4.07;1.42;;;30.30;53.50;;;;;;5090496;28;20024;-66
2022/06/17 13:05:13;;;;;;;1.65;1.55;;;29.90;51.70;;;;;;5089463;28;20536;-66
2022/06/17 13:08:09;;;;;;;4.53;1.55;;;29.20;51.50;;;;;;5090346;28;20448;-65
2022/06/17 13:10:59;;;;;;;1.52;1.40;;;29.50;51.00;;;;;;5090381;28;20454;-66
2022/06/17 13:13:45;;;;;;;3.25;1.25;;;29.10;50.70;;;;;;5090330;28;20032;-66
2022/06/17 13:16:50;;;;;;;4.70;1.50;;;29.10;49.30;;;;;;5090528;28;20070;-66
2022/06/17 13:19:41;;;;;;;1.83;1.42;;;29.00;51.30;;;;;;5089368;28;20027;-66
2022/06/17 13:22:22;;;;;;;3.15;1.35;;;29.10;51.20;;;;;;5089990;28;20021;-66
2022/06/17 13:25:28;;;;;;;3.13;1.30;;;29.20;51.00;;;;;;5090481;28;20055;-66
2022/06/17 13:28:01;;;;;;;3.22;1.30;;;29.40;49.70;;;;;;5089997;28;20029;-66
2022/06/17 13:30:33;;;;;;;1.75;1.23;;;29.90;48.10;;;;;;5090359;28;20103;-63
2022/06/17 13:33:20;;;;;;;3.47;1.30;;;29.90;47.70;;;;;;5089982;28;20035;-65
2022/06/17 13:35:52;;;;;;;2.03;1.23;;;29.60;48.40;;;;;;5089914;28;20035;-66
2022/06/17 13:38:26;;;;;;;1.40;1.30;;;29.40;48.10;;;;;;5090214;28;20066;-66
2022/06/17 13:41:02;;;;;;;2.55;1.30;;;29.70;48.60;;;;;;5090098;28;20028;-65
2022/06/17 13:43:34;;;;;;;1.55;1.23;;;29.50;48.40;;;;;;5090066;28;20038;-66
2022/06/17 13:46:25;;;;;;;2.15;1.15;;;29.30;49.40;;;;;;5090050;28;20074;-66
2022/06/17 13:49:04;;;;;;;1.45;1.13;;;29.10;48.30;;;;;;5089690;28;20078;-66
2022/06/17 13:51:39;;;;;;;3.60;1.33;;;29.50;49.60;;;;;;5089908;28;20020;-66
2022/06/17 13:54:34;;;;;;;2.67;1.42;;;29.70;48.10;;;;;;5089649;28;20435;-66
2022/06/17 13:57:07;;;;;;;1.23;1.00;;;29.60;48.20;;;;;;5089510;28;20490;-66
2022/06/17 13:59:36;;;;;;;;;;;29.40;47.80;;;;;;5090245;28;20020;-66
2022/06/17 14:02:24;;;;;;;3.65;1.50;;;29.50;49.30;;;;;;5089731;28;19905;-66
2022/06/17 14:07:54;;;;;;;3.67;1.40;;;29.60;49.90;;;;;;5070572;28;20757;-65